Time;durP1;ratioP1;P1;durP2;ratioP2;P2;SDS_P1;SDS_P2;PMS_P1;PMS_P2;Temp;Humidity;BMP_temperature;BMP_pressure;BME280_temperature;BME280_humidity;BME280_pressure;Samples;Min_cycle;Max_cycle;Signal;HPM_P1;HPM_P2
2021/11/20 00:00:13;;;;;;;12.88;10.13;;;7.50;99.90;;;;;;5049771;28;20029;-77
2021/11/20 00:02:39;;;;;;;12.00;10.52;;;7.50;99.90;;;;;;5050571;28;20030;-78
2021/11/20 00:05:09;;;;;;;11.75;9.60;;;7.40;99.90;;;;;;5049776;28;20105;-77
2021/11/20 00:07:34;;;;;;;13.23;11.15;;;7.40;99.90;;;;;;5048412;28;20025;-77
2021/11/20 00:10:00;;;;;;;13.18;11.07;;;7.40;99.90;;;;;;5049706;28;20101;-78
2021/11/20 00:12:29;;;;;;;11.57;9.95;;;7.40;99.90;;;;;;5051369;28;20033;-78
2021/11/20 00:14:55;;;;;;;12.38;10.57;;;7.40;99.90;;;;;;5050876;28;20010;-77
2021/11/20 00:17:21;;;;;;;11.20;10.00;;;7.40;99.90;;;;;;5047680;28;20049;-81
2021/11/20 00:19:48;;;;;;;11.60;10.40;;;7.40;99.90;;;;;;5053279;28;20016;-79
2021/11/20 00:22:20;;;;;;;13.85;10.25;;;7.40;99.90;;;;;;5058827;28;20070;-79
2021/11/20 00:24:54;;;;;;;12.18;10.35;;;7.30;99.90;;;;;;5058131;28;20041;-79
2021/11/20 00:27:24;;;;;;;12.73;10.00;;;7.40;99.90;;;;;;5055819;28;20152;-79
2021/11/20 00:32:59;;;;;;;12.43;9.90;;;7.40;99.90;;;;;;5009249;28;20042;-78
2021/11/20 00:35:29;;;;;;;13.02;10.52;;;7.40;99.90;;;;;;5042131;28;20037;-78
2021/11/20 00:37:55;;;;;;;11.93;9.75;;;7.40;99.90;;;;;;5045381;28;20025;-79
2021/11/20 00:40:29;;;;;;;12.45;10.50;;;7.40;99.90;;;;;;5043731;28;20128;-79
2021/11/20 00:42:55;;;;;;;13.93;10.85;;;7.40;99.90;;;;;;5041141;28;20060;-79
2021/11/20 00:45:21;;;;;;;15.93;11.07;;;7.40;99.90;;;;;;5042868;28;20033;-79
2021/11/20 00:47:47;;;;;;;11.18;9.32;;;7.40;99.90;;;;;;5043203;28;20025;-79
2021/11/20 00:50:14;;;;;;;12.65;9.90;;;7.40;99.90;;;;;;5041405;28;20083;-80
2021/11/20 00:52:41;;;;;;;11.63;10.20;;;7.40;99.90;;;;;;5043366;28;20021;-80
2021/11/20 00:55:10;;;;;;;12.98;10.68;;;7.40;99.90;;;;;;5045682;28;20179;-79
2021/11/20 00:57:35;;;;;;;13.50;11.55;;;7.40;99.90;;;;;;5046880;28;20036;-78
2021/11/20 01:00:03;;;;;;;13.70;11.23;;;7.40;99.90;;;;;;5045643;28;20374;-78
2021/11/20 01:02:29;;;;;;;11.50;9.77;;;7.40;99.90;;;;;;5049349;28;20029;-79
2021/11/20 01:04:54;;;;;;;12.43;10.27;;;7.40;99.90;;;;;;5047558;28;20125;-77
2021/11/20 01:07:20;;;;;;;13.52;10.82;;;7.40;99.90;;;;;;5047679;28;20017;-77
2021/11/20 01:09:45;;;;;;;13.77;10.55;;;7.30;99.90;;;;;;5046319;28;20052;-78
2021/11/20 01:12:23;;;;;;;12.73;10.68;;;7.30;99.90;;;;;;5045455;28;20544;-78
2021/11/20 01:14:49;;;;;;;14.68;11.52;;;7.30;99.90;;;;;;5046986;28;20032;-78
2021/11/20 01:17:17;;;;;;;14.48;10.82;;;7.30;99.90;;;;;;5044182;28;20127;-77
2021/11/20 01:19:44;;;;;;;12.00;10.07;;;7.30;99.90;;;;;;5046136;28;20408;-78
2021/11/20 01:22:13;;;;;;;14.10;10.73;;;7.30;99.90;;;;;;5046405;28;20035;-78
2021/11/20 01:24:40;;;;;;;13.40;11.00;;;7.40;99.90;;;;;;5043530;28;20076;-78
2021/11/20 01:27:06;;;;;;;12.23;10.43;;;7.40;99.90;;;;;;5043664;28;20043;-80
2021/11/20 01:29:31;;;;;;;13.25;10.70;;;7.30;99.90;;;;;;5044476;28;20405;-79
2021/11/20 01:31:57;;;;;;;13.02;11.02;;;7.30;99.90;;;;;;5045539;28;20022;-79
2021/11/20 01:34:25;;;;;;;14.30;11.88;;;7.30;99.90;;;;;;5052048;28;20049;-78
2021/11/20 01:36:53;;;;;;;12.98;11.52;;;7.30;99.90;;;;;;5044182;28;20031;-78
2021/11/20 01:39:25;;;;;;;16.00;12.60;;;7.30;99.90;;;;;;5042864;28;20025;-77
2021/11/20 01:41:57;;;;;;;15.93;12.13;;;7.30;99.90;;;;;;5046186;28;20040;-78
2021/11/20 01:44:28;;;;;;;15.63;12.63;;;7.30;99.90;;;;;;5047684;28;20030;-78
2021/11/20 01:47:02;;;;;;;16.05;12.02;;;7.30;99.90;;;;;;5044983;28;20074;-78
2021/11/20 01:49:32;;;;;;;14.98;12.05;;;7.30;99.90;;;;;;5044127;28;20104;-78
2021/11/20 01:52:06;;;;;;;13.20;11.60;;;7.30;99.90;;;;;;5043362;28;20127;-77
2021/11/20 01:54:40;;;;;;;14.27;12.13;;;7.30;99.90;;;;;;5043803;28;20275;-78
2021/11/20 01:57:31;;;;;;;13.73;11.85;;;7.40;99.90;;;;;;5045310;28;20025;-78
2021/11/20 02:00:30;;;;;;;13.70;11.15;;;7.30;99.90;;;;;;5044947;28;20120;-78
2021/11/20 02:03:31;;;;;;;17.05;13.20;;;7.50;99.90;;;;;;5043903;28;20061;-79
2021/11/20 02:06:18;;;;;;;16.13;11.93;;;7.60;99.90;;;;;;5039565;28;20046;-79
2021/11/20 02:09:05;;;;;;;14.98;12.05;;;7.50;99.90;;;;;;5044532;28;20030;-78
2021/11/20 02:11:56;;;;;;;13.63;11.57;;;7.30;99.90;;;;;;5039924;28;20029;-79
2021/11/20 02:14:24;;;;;;;15.43;12.63;;;7.30;99.90;;;;;;5036427;28;20037;-79
2021/11/20 02:17:04;;;;;;;17.75;14.05;;;7.40;99.90;;;;;;5044893;28;20032;-80
2021/11/20 02:19:36;;;;;;;15.73;12.10;;;7.40;99.90;;;;;;5041853;28;20473;-78
2021/11/20 02:22:09;;;;;;;15.50;12.68;;;7.30;99.90;;;;;;5039150;28;20409;-80
2021/11/20 02:24:34;;;;;;;15.82;13.00;;;7.30;99.90;;;;;;5041439;28;20021;-79
2021/11/20 02:27:04;;;;;;;16.60;12.60;;;7.40;99.90;;;;;;5044603;28;20056;-79
2021/11/20 02:29:30;;;;;;;15.70;13.00;;;7.40;99.90;;;;;;5044148;28;20017;-79
2021/11/20 02:31:59;;;;;;;14.25;12.18;;;7.40;99.90;;;;;;5050914;28;20101;-80
2021/11/20 02:34:31;;;;;;;15.00;12.13;;;7.40;99.90;;;;;;5054334;28;20030;-79
2021/11/20 02:36:57;;;;;;;13.65;12.25;;;7.30;99.90;;;;;;5057073;28;20034;-79
2021/11/20 02:39:27;;;;;;;13.65;11.75;;;7.30;99.90;;;;;;5044770;28;20037;-80
2021/11/20 02:41:56;;;;;;;14.60;11.95;;;7.30;99.90;;;;;;5043579;28;20026;-77
2021/11/20 02:44:23;;;;;;;14.60;11.95;;;7.30;99.90;;;;;;5043343;28;20034;-78
2021/11/20 02:46:52;;;;;;;15.18;12.63;;;7.30;99.90;;;;;;5041337;28;20071;-79
2021/11/20 02:49:18;;;;;;;15.25;12.82;;;7.30;99.90;;;;;;5044140;28;20084;-79
2021/11/20 02:51:52;;;;;;;14.32;11.88;;;7.30;99.90;;;;;;5042227;28;20022;-79
2021/11/20 02:54:24;;;;;;;17.58;12.43;;;7.40;99.90;;;;;;5047068;28;20315;-80
2021/11/20 02:56:54;;;;;;;14.93;12.43;;;7.30;99.90;;;;;;5041771;28;20021;-79
2021/11/20 02:59:20;;;;;;;14.90;11.38;;;7.30;99.90;;;;;;5041435;28;20021;-79
2021/11/20 03:01:48;;;;;;;15.55;12.27;;;7.30;99.90;;;;;;5046071;28;20113;-79
2021/11/20 03:04:16;;;;;;;13.95;11.55;;;7.30;99.90;;;;;;5042325;28;20031;-78
2021/11/20 03:06:41;;;;;;;15.25;12.63;;;7.40;99.90;;;;;;5039100;28;20031;-79
2021/11/20 03:09:09;;;;;;;13.63;12.13;;;7.40;99.90;;;;;;5046881;28;20025;-79
2021/11/20 03:11:36;;;;;;;14.90;12.55;;;7.40;99.90;;;;;;5047391;28;20033;-79
2021/11/20 03:14:06;;;;;;;14.50;12.95;;;7.40;99.90;;;;;;5044999;28;20037;-80
2021/11/20 03:16:35;;;;;;;15.48;12.43;;;7.40;99.90;;;;;;5045309;28;20056;-79
2021/11/20 03:19:01;;;;;;;16.42;12.75;;;7.40;99.90;;;;;;5044839;28;20026;-80
2021/11/20 03:21:27;;;;;;;13.73;11.73;;;7.40;99.90;;;;;;5045426;28;20028;-79
2021/11/20 03:23:55;;;;;;;14.65;12.27;;;7.40;99.90;;;;;;5050513;28;20029;-78
2021/11/20 03:26:21;;;;;;;14.23;12.40;;;7.50;99.90;;;;;;5051144;28;20199;-79
2021/11/20 03:28:47;;;;;;;14.85;12.27;;;7.50;99.90;;;;;;5047764;28;20269;-78
2021/11/20 03:31:12;;;;;;;14.32;12.25;;;7.40;99.90;;;;;;5048395;28;20073;-78
2021/11/20 03:33:38;;;;;;;16.40;12.55;;;7.40;99.90;;;;;;5057331;28;20045;-77
2021/11/20 03:36:04;;;;;;;17.05;12.10;;;7.40;99.90;;;;;;5058133;28;20056;-78
2021/11/20 03:38:30;;;;;;;14.02;11.85;;;7.40;99.90;;;;;;5059862;28;20033;-79
2021/11/20 03:40:56;;;;;;;17.48;13.52;;;7.40;99.90;;;;;;5057801;28;20068;-80
2021/11/20 03:43:22;;;;;;;14.95;11.73;;;7.40;99.90;;;;;;5051972;28;20025;-79
2021/11/20 03:45:48;;;;;;;18.35;12.90;;;7.40;99.90;;;;;;5051973;28;20081;-77
2021/11/20 03:48:14;;;;;;;13.80;11.93;;;7.40;99.90;;;;;;5048655;28;20501;-79
2021/11/20 03:50:40;;;;;;;13.38;11.27;;;7.40;99.90;;;;;;5048467;28;20022;-77
2021/11/20 03:53:06;;;;;;;18.35;11.98;;;7.40;99.90;;;;;;5048023;28;20026;-78
2021/11/20 03:55:35;;;;;;;15.35;11.85;;;7.40;99.90;;;;;;5049717;28;20033;-78
2021/11/20 03:58:01;;;;;;;14.70;11.65;;;7.40;99.90;;;;;;5046560;28;20493;-78
2021/11/20 04:00:32;;;;;;;15.55;11.98;;;7.40;99.90;;;;;;5044557;28;20453;-79
2021/11/20 04:02:57;;;;;;;15.15;12.85;;;7.50;99.90;;;;;;5041211;28;20037;-79
2021/11/20 04:05:23;;;;;;;15.98;12.77;;;7.40;99.90;;;;;;5040557;28;20034;-80
2021/11/20 04:07:50;;;;;;;16.15;12.30;;;7.40;99.90;;;;;;5040994;28;20026;-78
2021/11/20 04:10:18;;;;;;;14.98;12.40;;;7.50;99.90;;;;;;5062433;22;20440;-74
2021/11/20 04:12:44;;;;;;;15.55;11.65;;;7.40;99.90;;;;;;5051768;28;20025;-72
2021/11/20 04:15:12;;;;;;;17.17;12.80;;;7.50;99.90;;;;;;5034272;28;20040;-73
2021/11/20 04:17:38;;;;;;;15.50;11.40;;;7.70;99.90;;;;;;5032835;28;20029;-73
2021/11/20 04:20:09;;;;;;;16.77;12.63;;;7.60;99.90;;;;;;5033612;28;20041;-74
2021/11/20 04:22:36;;;;;;;17.60;12.95;;;7.50;99.90;;;;;;5034219;28;20028;-74
2021/11/20 04:25:04;;;;;;;15.20;12.55;;;7.50;99.90;;;;;;5034046;28;20048;-74
2021/11/20 04:27:30;;;;;;;16.92;13.27;;;7.40;99.90;;;;;;5034221;28;20028;-74
2021/11/20 04:29:56;;;;;;;19.10;12.80;;;7.50;99.90;;;;;;5033869;28;20389;-74
2021/11/20 04:32:22;;;;;;;14.90;12.10;;;7.60;99.90;;;;;;5033649;28;20090;-73
2021/11/20 04:34:47;;;;;;;15.88;12.50;;;7.60;99.90;;;;;;5033726;28;20033;-73
2021/11/20 04:37:13;;;;;;;18.23;13.35;;;7.50;99.90;;;;;;5033962;28;20029;-74
2021/11/20 04:39:39;;;;;;;17.83;12.70;;;7.50;99.90;;;;;;5033772;28;20022;-74
2021/11/20 04:42:04;;;;;;;16.92;13.10;;;7.50;99.90;;;;;;5035443;28;20048;-73
2021/11/20 04:44:30;;;;;;;15.68;11.80;;;7.50;99.90;;;;;;5033588;28;20049;-74
2021/11/20 04:46:56;;;;;;;15.50;11.98;;;7.50;99.90;;;;;;5033829;28;20444;-73
2021/11/20 04:49:21;;;;;;;14.25;11.95;;;7.50;99.90;;;;;;5033639;28;20026;-73
2021/11/20 04:51:47;;;;;;;17.10;12.50;;;7.60;99.90;;;;;;5038346;28;20543;-74
2021/11/20 04:54:12;;;;;;;15.52;12.38;;;7.70;99.90;;;;;;5035106;28;20397;-74
2021/11/20 04:56:38;;;;;;;15.70;11.75;;;7.60;99.90;;;;;;5033470;28;20481;-73
2021/11/20 04:59:03;;;;;;;16.00;13.13;;;7.50;99.90;;;;;;5033308;28;20083;-74
2021/11/20 05:01:29;;;;;;;16.13;12.88;;;7.40;99.90;;;;;;5033075;28;20026;-74
2021/11/20 05:03:55;;;;;;;15.60;12.48;;;7.30;99.90;;;;;;5033115;28;20048;-74
2021/11/20 05:06:24;;;;;;;14.80;11.70;;;7.30;99.90;;;;;;5033257;28;20029;-74
2021/11/20 05:08:50;;;;;;;17.42;12.88;;;7.30;99.90;;;;;;5033977;28;20052;-74
2021/11/20 05:11:16;;;;;;;22.48;12.10;;;7.50;99.90;;;;;;5032850;28;20034;-74
2021/11/20 05:13:43;;;;;;;14.45;11.73;;;7.50;99.90;;;;;;5033068;28;20025;-74
2021/11/20 05:16:10;;;;;;;15.27;12.80;;;7.50;99.90;;;;;;5032826;28;20025;-73
2021/11/20 05:18:36;;;;;;;17.35;12.88;;;7.40;99.90;;;;;;5033150;28;20021;-74
2021/11/20 05:21:02;;;;;;;17.27;13.40;;;7.30;99.90;;;;;;5032741;28;20026;-73
2021/11/20 05:23:31;;;;;;;14.85;12.32;;;7.30;99.90;;;;;;5031694;28;20041;-73
2021/11/20 05:25:56;;;;;;;15.02;11.98;;;7.30;99.90;;;;;;5032926;28;20109;-74
2021/11/20 05:28:22;;;;;;;15.50;12.82;;;7.40;99.90;;;;;;5032877;28;20117;-73
2021/11/20 05:30:50;;;;;;;15.52;12.30;;;7.40;99.90;;;;;;5032377;28;20029;-74
2021/11/20 05:33:20;;;;;;;17.63;11.82;;;7.40;99.90;;;;;;5032693;28;20017;-74
2021/11/20 05:35:47;;;;;;;17.13;12.68;;;7.30;99.90;;;;;;5032756;28;20032;-73
2021/11/20 05:38:13;;;;;;;14.95;11.88;;;7.30;99.90;;;;;;5048592;28;20021;-73
2021/11/20 05:40:40;;;;;;;15.77;11.82;;;7.30;99.90;;;;;;5031800;28;20100;-74
2021/11/20 05:43:10;;;;;;;13.95;11.52;;;7.40;99.90;;;;;;5032512;28;20053;-73
2021/11/20 05:45:39;;;;;;;14.13;12.02;;;7.50;99.90;;;;;;5032578;28;20132;-73
2021/11/20 05:48:04;;;;;;;17.17;11.90;;;7.40;99.90;;;;;;5034064;28;20382;-73
2021/11/20 05:50:31;;;;;;;14.38;12.18;;;7.40;99.90;;;;;;5035444;28;20025;-74
2021/11/20 05:52:57;;;;;;;15.80;11.48;;;7.40;99.90;;;;;;5032753;28;20051;-74
2021/11/20 05:55:29;;;;;;;16.52;11.20;;;7.30;99.90;;;;;;5033288;28;20485;-73
2021/11/20 05:57:55;;;;;;;15.55;12.15;;;7.40;99.90;;;;;;5038136;28;20060;-73
2021/11/20 06:00:26;;;;;;;15.30;12.18;;;7.60;99.90;;;;;;5040059;28;20030;-73
2021/11/20 06:02:55;;;;;;;15.50;11.27;;;7.60;99.90;;;;;;5032550;28;20067;-74
2021/11/20 06:05:21;;;;;;;14.10;11.00;;;7.60;99.90;;;;;;5032182;28;20033;-74
2021/11/20 06:07:47;;;;;;;17.45;12.10;;;7.60;99.90;;;;;;5032517;28;20017;-72
2021/11/20 06:10:13;;;;;;;14.10;11.35;;;7.40;99.90;;;;;;5032152;28;20091;-75
2021/11/20 06:12:38;;;;;;;15.95;12.48;;;7.40;99.90;;;;;;5032254;28;20018;-74
2021/11/20 06:15:05;;;;;;;14.30;11.45;;;7.40;99.90;;;;;;5033315;28;20052;-74
2021/11/20 06:17:31;;;;;;;16.42;12.20;;;7.50;99.90;;;;;;5032674;28;20025;-74
2021/11/20 06:19:56;;;;;;;17.58;12.05;;;7.50;99.90;;;;;;5035883;28;20045;-74
2021/11/20 06:22:24;;;;;;;16.98;11.85;;;7.40;99.90;;;;;;5032645;28;20026;-74
2021/11/20 06:24:51;;;;;;;13.80;11.10;;;7.50;99.90;;;;;;5031302;28;20081;-74
2021/11/20 06:27:17;;;;;;;18.02;12.23;;;7.70;99.90;;;;;;5032501;28;20026;-73
2021/11/20 06:29:43;;;;;;;18.65;12.25;;;7.70;99.90;;;;;;5032314;28;20374;-74
2021/11/20 06:32:09;;;;;;;15.55;11.85;;;7.50;99.90;;;;;;5031194;28;20099;-73
2021/11/20 06:34:35;;;;;;;15.93;11.73;;;7.50;99.90;;;;;;5032129;28;20428;-74
2021/11/20 06:37:01;;;;;;;14.82;11.50;;;7.50;99.90;;;;;;5032509;28;20032;-74
2021/11/20 06:39:27;;;;;;;17.10;11.20;;;7.50;99.90;;;;;;5036740;28;20034;-74
2021/11/20 06:41:54;;;;;;;13.82;11.50;;;7.40;99.90;;;;;;5035324;28;20091;-74
2021/11/20 06:44:20;;;;;;;16.60;12.55;;;7.40;99.90;;;;;;5034822;28;20552;-73
2021/11/20 06:46:45;;;;;;;16.67;11.48;;;7.40;99.90;;;;;;5036260;28;20033;-74
2021/11/20 06:49:12;;;;;;;15.32;11.60;;;7.40;99.90;;;;;;5035805;28;20022;-73
2021/11/20 06:51:38;;;;;;;16.25;12.00;;;7.30;99.90;;;;;;5034310;28;20108;-73
2021/11/20 06:54:04;;;;;;;14.45;11.70;;;7.40;99.90;;;;;;5035843;28;20056;-74
2021/11/20 06:56:40;;;;;;;17.83;12.13;;;7.40;99.90;;;;;;5035698;28;20464;-75
2021/11/20 06:59:13;;;;;;;15.00;11.40;;;7.50;99.90;;;;;;5035623;28;20476;-73
2021/11/20 07:01:39;;;;;;;18.33;12.20;;;7.40;99.90;;;;;;5037542;28;20030;-73
2021/11/20 07:04:09;;;;;;;19.77;12.32;;;7.40;99.90;;;;;;5050508;28;20037;-73
2021/11/20 07:06:51;;;;;;;15.25;11.82;;;7.40;99.90;;;;;;5036412;28;20116;-73
2021/11/20 07:09:17;;;;;;;14.35;11.80;;;7.30;99.90;;;;;;5035482;28;20021;-73
2021/11/20 07:11:42;;;;;;;19.55;12.20;;;7.30;99.90;;;;;;5037754;28;20361;-72
2021/11/20 07:14:09;;;;;;;15.15;11.95;;;7.40;99.90;;;;;;5034325;28;20056;-73
2021/11/20 07:16:35;;;;;;;18.90;12.30;;;7.40;99.90;;;;;;5037620;28;20030;-73
2021/11/20 07:19:01;;;;;;;16.38;12.68;;;7.40;99.90;;;;;;5040416;28;20050;-73
2021/11/20 07:21:28;;;;;;;18.73;11.98;;;7.50;99.90;;;;;;5047305;28;20044;-73
2021/11/20 07:23:56;;;;;;;20.08;12.50;;;7.50;99.90;;;;;;5044865;28;20116;-74
2021/11/20 07:26:23;;;;;;;14.27;10.98;;;7.50;99.90;;;;;;5036902;28;20021;-73
2021/11/20 07:28:50;;;;;;;13.88;11.40;;;7.60;99.90;;;;;;5036323;28;20025;-73
2021/11/20 07:31:16;;;;;;;13.98;10.75;;;7.60;99.90;;;;;;5037310;28;20014;-74
2021/11/20 07:33:42;;;;;;;16.90;11.93;;;7.80;99.90;;;;;;5046642;28;20092;-73
2021/11/20 07:36:09;;;;;;;12.60;10.57;;;7.90;99.90;;;;;;5052409;28;20025;-74
2021/11/20 07:38:39;;;;;;;15.30;11.10;;;8.00;99.90;;;;;;5037011;28;20500;-73
2021/11/20 07:41:06;;;;;;;14.70;11.20;;;8.10;99.90;;;;;;5035814;28;20041;-75
2021/11/20 07:43:31;;;;;;;14.32;10.93;;;8.20;99.90;;;;;;5034635;28;20512;-73
2021/11/20 07:45:57;;;;;;;18.08;12.10;;;8.20;99.90;;;;;;5035572;28;20037;-74
2021/11/20 07:48:25;;;;;;;14.30;10.75;;;8.20;99.90;;;;;;5033987;28;20087;-73
2021/11/20 07:50:53;;;;;;;19.60;12.30;;;8.20;99.90;;;;;;5036494;28;20028;-73
2021/11/20 07:53:19;;;;;;;14.88;11.98;;;8.20;99.90;;;;;;5035837;28;20040;-73
2021/11/20 07:55:46;;;;;;;15.05;11.82;;;8.00;99.90;;;;;;5036189;28;20033;-73
2021/11/20 07:58:12;;;;;;;16.20;12.38;;;8.00;99.90;;;;;;5035221;28;20036;-73
2021/11/20 08:00:38;;;;;;;16.55;13.10;;;8.20;99.90;;;;;;5036813;28;20030;-73
2021/11/20 08:03:06;;;;;;;17.60;13.65;;;8.20;99.90;;;;;;5037479;28;20028;-73
2021/11/20 08:05:31;;;;;;;16.42;12.50;;;8.20;99.90;;;;;;5038314;28;20025;-73
2021/11/20 08:07:57;;;;;;;20.70;13.68;;;8.20;99.90;;;;;;5054741;28;20079;-73
2021/11/20 08:10:26;;;;;;;16.45;12.85;;;8.20;99.90;;;;;;5042103;28;20025;-75
2021/11/20 08:12:52;;;;;;;16.10;12.70;;;8.10;99.90;;;;;;5037327;28;20592;-74
2021/11/20 08:15:18;;;;;;;17.38;13.05;;;8.10;99.90;;;;;;5036192;28;20567;-73
2021/11/20 08:17:44;;;;;;;16.00;12.18;;;8.00;99.90;;;;;;5037537;28;20140;-74
2021/11/20 08:20:13;;;;;;;19.45;13.25;;;8.20;99.90;;;;;;5053594;28;20042;-74
2021/11/20 08:22:39;;;;;;;17.92;14.45;;;8.40;99.90;;;;;;5052286;28;20026;-74
2021/11/20 08:25:08;;;;;;;16.33;12.70;;;8.60;99.90;;;;;;5053668;28;20067;-74
2021/11/20 08:27:34;;;;;;;19.27;12.30;;;8.70;99.90;;;;;;5059046;28;20049;-73
2021/11/20 08:30:00;;;;;;;17.02;12.32;;;8.80;99.90;;;;;;5056805;28;20038;-74
2021/11/20 08:32:27;;;;;;;20.67;14.18;;;8.70;99.90;;;;;;5056863;28;20056;-73
2021/11/20 08:34:55;;;;;;;15.63;12.48;;;8.80;99.90;;;;;;5055193;28;20017;-74
2021/11/20 08:37:21;;;;;;;16.45;12.60;;;8.70;99.90;;;;;;5039223;28;20049;-74
2021/11/20 08:39:47;;;;;;;17.20;12.88;;;8.70;99.90;;;;;;5039015;28;20025;-74
2021/11/20 08:42:15;;;;;;;17.05;12.93;;;8.70;99.90;;;;;;5038048;28;20068;-76
2021/11/20 08:44:41;;;;;;;17.25;12.68;;;8.80;99.90;;;;;;5035949;28;20516;-73
2021/11/20 08:47:07;;;;;;;22.30;14.00;;;8.90;99.90;;;;;;5036717;28;20071;-73
2021/11/20 08:49:33;;;;;;;17.98;13.73;;;8.80;99.90;;;;;;5036902;28;20030;-74
2021/11/20 08:51:58;;;;;;;18.20;13.60;;;8.90;99.90;;;;;;5036243;28;20092;-74
2021/11/20 08:54:24;;;;;;;17.50;14.10;;;8.90;99.90;;;;;;5035117;28;20494;-73
2021/11/20 08:56:54;;;;;;;20.25;14.25;;;8.90;99.90;;;;;;5033875;28;20021;-74
2021/11/20 08:59:22;;;;;;;18.23;14.15;;;8.90;99.90;;;;;;5035127;28;20041;-73
2021/11/20 09:02:29;;;;;;;18.73;14.35;;;8.90;99.90;;;;;;5037320;28;20035;-75
2021/11/20 09:05:28;;;;;;;19.00;14.38;;;8.70;99.90;;;;;;5034016;28;20048;-74
2021/11/20 09:08:09;;;;;;;17.15;13.07;;;8.50;99.90;;;;;;5037308;28;20037;-74
2021/11/20 09:10:51;;;;;;;17.75;13.70;;;8.50;99.90;;;;;;5035243;28;20156;-73
2021/11/20 09:13:25;;;;;;;19.80;13.57;;;8.60;99.90;;;;;;5035572;28;20072;-75
2021/11/20 09:15:55;;;;;;;18.40;14.15;;;8.60;99.90;;;;;;5033984;28;20090;-73
2021/11/20 09:18:21;;;;;;;15.80;12.68;;;8.80;99.90;;;;;;5033817;28;20501;-74
2021/11/20 09:20:51;;;;;;;17.38;14.52;;;9.00;99.90;;;;;;5036307;28;20032;-74
2021/11/20 09:23:17;;;;;;;20.15;15.27;;;9.10;99.90;;;;;;5038301;28;20052;-74
2021/11/20 09:25:43;;;;;;;20.70;14.15;;;9.00;99.90;;;;;;5034865;28;20030;-74
2021/11/20 09:28:11;;;;;;;18.25;13.40;;;9.10;99.90;;;;;;5037210;28;20025;-74
2021/11/20 09:30:41;;;;;;;20.58;13.00;;;9.10;99.90;;;;;;5036156;28;20031;-74
2021/11/20 09:33:06;;;;;;;14.48;11.30;;;9.30;99.90;;;;;;5035844;28;20021;-74
2021/11/20 09:35:33;;;;;;;14.65;11.32;;;9.10;99.90;;;;;;5035708;28;20021;-74
2021/11/20 09:37:59;;;;;;;18.95;11.45;;;9.00;99.90;;;;;;5035222;28;20071;-74
2021/11/20 09:40:30;;;;;;;14.30;11.07;;;8.80;99.90;;;;;;5034855;28;20025;-73
2021/11/20 09:43:01;;;;;;;15.10;11.65;;;8.90;99.90;;;;;;5037376;28;20025;-74
2021/11/20 09:45:33;;;;;;;12.55;9.85;;;8.90;99.90;;;;;;5041765;28;20032;-73
2021/11/20 09:48:24;;;;;;;12.98;10.00;;;9.00;99.90;;;;;;5048496;28;20110;-74
2021/11/20 09:50:55;;;;;;;11.95;9.70;;;9.40;99.90;;;;;;5048142;28;20042;-73
2021/11/20 09:53:23;;;;;;;13.07;9.77;;;9.10;99.90;;;;;;5050084;28;20040;-74
2021/11/20 09:55:54;;;;;;;12.02;9.00;;;9.20;99.90;;;;;;5044611;28;20025;-74
2021/11/20 09:58:39;;;;;;;15.95;12.18;;;9.10;99.90;;;;;;5045788;28;20025;-74
2021/11/20 10:01:11;;;;;;;12.98;8.85;;;9.20;99.90;;;;;;5045501;28;20036;-74
2021/11/20 10:03:43;;;;;;;12.50;9.73;;;9.30;99.90;;;;;;5051357;28;20032;-73
2021/11/20 10:06:22;;;;;;;10.70;7.35;;;9.20;99.90;;;;;;5053222;28;20025;-75
2021/11/20 10:08:48;;;;;;;14.25;8.43;;;9.40;99.90;;;;;;5049563;28;20039;-74
2021/11/20 10:11:39;;;;;;;11.32;8.65;;;9.40;99.90;;;;;;5061919;22;20136;-81
2021/11/20 10:14:11;;;;;;;13.03;9.90;;;9.40;99.90;;;;;;5041208;28;20017;-80
2021/11/20 10:16:50;;;;;;;9.52;7.57;;;9.60;99.90;;;;;;5043518;28;20256;-80
2021/11/20 10:19:42;;;;;;;11.88;9.70;;;9.70;99.90;;;;;;5045997;28;20488;-79
2021/11/20 10:22:15;;;;;;;10.27;7.60;;;9.80;99.90;;;;;;5019609;28;20034;-81
2021/11/20 10:25:03;;;;;;;10.05;6.40;;;9.90;99.90;;;;;;5034359;28;20038;-81
2021/11/20 10:28:00;;;;;;;7.75;6.00;;;9.60;99.90;;;;;;5027564;28;20493;-80
2021/11/20 10:30:52;;;;;;;10.50;7.35;;;9.50;99.90;;;;;;5023110;28;20024;-83
2021/11/20 10:33:40;;;;;;;14.60;8.90;;;9.80;99.90;;;;;;5026953;28;20026;-80
2021/11/20 10:36:24;;;;;;;9.70;8.20;;;9.70;99.90;;;;;;5027002;28;20069;-80
2021/11/20 10:39:03;;;;;;;8.77;6.90;;;9.70;99.90;;;;;;5024457;28;20033;-80
2021/11/20 10:41:43;;;;;;;17.58;14.05;;;9.60;99.90;;;;;;5024831;28;20052;-80
2021/11/20 10:44:22;;;;;;;9.35;7.43;;;9.30;99.90;;;;;;5024205;28;20026;-79
2021/11/20 10:47:21;;;;;;;7.78;5.90;;;9.20;99.90;;;;;;5023293;28;20097;-80
2021/11/20 10:50:14;;;;;;;9.55;6.35;;;9.60;99.90;;;;;;5015534;28;20042;-79
2021/11/20 10:53:05;;;;;;;9.40;5.13;;;9.60;99.90;;;;;;5027746;28;20122;-79
2021/11/20 10:55:53;;;;;;;8.30;6.57;;;9.60;99.90;;;;;;5029642;28;20037;-80
2021/11/20 10:58:18;;;;;;;8.13;5.72;;;9.30;99.90;;;;;;5028258;28;20032;-78
2021/11/20 11:00:46;;;;;;;7.93;5.70;;;9.30;99.90;;;;;;5024096;28;20049;-80
2021/11/20 11:03:31;;;;;;;7.68;4.82;;;9.20;99.90;;;;;;5025499;28;20108;-79
2021/11/20 11:06:24;;;;;;;6.38;5.00;;;9.30;99.90;;;;;;5025256;28;20356;-79
2021/11/20 11:09:20;;;;;;;4.78;4.10;;;9.20;99.90;;;;;;5026421;28;20473;-80
2021/11/20 11:12:03;;;;;;;5.32;4.53;;;9.40;99.90;;;;;;5028668;28;20056;-79
2021/11/20 11:14:43;;;;;;;6.88;5.70;;;9.40;99.90;;;;;;5027308;28;20029;-79
2021/11/20 11:17:39;;;;;;;7.53;5.22;;;9.40;99.90;;;;;;5027024;28;20096;-80
2021/11/20 11:20:26;;;;;;;7.40;6.13;;;9.40;99.90;;;;;;5026951;28;20034;-80
2021/11/20 11:23:26;;;;;;;7.10;5.93;;;9.70;99.90;;;;;;5025499;28;20041;-79
2021/11/20 11:26:06;;;;;;;7.57;5.90;;;9.80;99.90;;;;;;5027619;28;20098;-79
2021/11/20 11:28:37;;;;;;;8.95;6.20;;;9.90;99.90;;;;;;5027792;28;20026;-80
2021/11/20 11:31:25;;;;;;;8.05;6.82;;;9.80;99.90;;;;;;5031625;28;20053;-80
2021/11/20 11:34:02;;;;;;;9.02;6.60;;;9.50;99.90;;;;;;5031781;28;20060;-79
2021/11/20 11:36:43;;;;;;;9.88;7.25;;;9.30;99.90;;;;;;5030049;28;20022;-79
2021/11/20 11:39:45;;;;;;;9.02;6.45;;;9.10;99.90;;;;;;5027200;28;20096;-80
2021/11/20 11:42:29;;;;;;;7.72;5.68;;;9.20;99.90;;;;;;5025439;28;20046;-78
2021/11/20 11:45:18;;;;;;;8.18;5.75;;;9.60;99.90;;;;;;5025554;28;20022;-80
2021/11/20 11:47:58;;;;;;;7.28;5.70;;;9.60;99.90;;;;;;5019758;28;20038;-80
2021/11/20 11:51:16;;;;;;;8.05;5.63;;;9.50;99.90;;;;;;5035004;28;20014;-78
2021/11/20 11:54:04;;;;;;;7.75;5.30;;;9.80;99.90;;;;;;5037151;28;20182;-80
2021/11/20 11:56:58;;;;;;;5.90;5.00;;;9.60;99.90;;;;;;5038687;28;20029;-79
2021/11/20 12:00:04;;;;;;;9.38;5.07;;;9.70;99.90;;;;;;5038384;28;20078;-79
2021/11/20 12:02:35;;;;;;;6.75;4.45;;;9.70;99.90;;;;;;5031465;28;20042;-79
2021/11/20 12:05:19;;;;;;;5.47;4.65;;;9.40;99.90;;;;;;5029819;28;20026;-79
2021/11/20 12:07:58;;;;;;;5.65;5.03;;;9.40;99.90;;;;;;5025298;28;20018;-80
2021/11/20 12:10:24;;;;;;;7.43;5.53;;;9.40;99.90;;;;;;5026195;28;20049;-78
2021/11/20 12:13:10;;;;;;;5.18;4.22;;;9.50;99.90;;;;;;5026407;28;20022;-80
2021/11/20 12:15:48;;;;;;;5.63;4.30;;;9.40;99.90;;;;;;5023698;28;20478;-80
2021/11/20 12:18:25;;;;;;;5.13;4.30;;;9.40;99.90;;;;;;5024951;28;20033;-80
2021/11/20 12:21:16;;;;;;;6.40;4.47;;;9.60;99.90;;;;;;5025045;28;20064;-79
2021/11/20 12:23:49;;;;;;;6.10;4.25;;;9.50;99.90;;;;;;5025977;28;20104;-80
2021/11/20 12:26:41;;;;;;;8.10;4.78;;;9.60;99.90;;;;;;5025820;28;20088;-78
2021/11/20 12:29:07;;;;;;;7.10;4.72;;;9.80;99.90;;;;;;5025699;28;20030;-81
2021/11/20 12:31:55;;;;;;;5.53;4.25;;;10.00;99.90;;;;;;5025023;28;20078;-80
2021/11/20 12:34:45;;;;;;;5.60;4.65;;;10.00;99.90;;;;;;5027007;28;20022;-80
2021/11/20 12:37:50;;;;;;;6.07;5.07;;;9.50;99.90;;;;;;5026315;28;20033;-79
2021/11/20 12:40:47;;;;;;;6.90;5.03;;;9.30;99.90;;;;;;5021820;28;20256;-80
2021/11/20 12:43:54;;;;;;;5.78;4.93;;;9.20;99.90;;;;;;5023517;28;20045;-80
2021/11/20 12:46:25;;;;;;;6.53;5.25;;;9.30;99.90;;;;;;5036023;28;20038;-79
2021/11/20 12:49:18;;;;;;;5.57;4.18;;;9.40;99.90;;;;;;5026355;28;20048;-79
2021/11/20 12:51:52;;;;;;;6.03;4.47;;;9.50;99.90;;;;;;5032496;28;20033;-78
2021/11/20 12:54:40;;;;;;;7.35;5.97;;;9.60;99.90;;;;;;5035952;28;20026;-80
2021/11/20 12:57:23;;;;;;;14.13;6.93;;;9.40;99.90;;;;;;5037223;28;20025;-78
2021/11/20 12:59:56;;;;;;;6.25;5.65;;;9.20;99.90;;;;;;5033220;28;20109;-80
2021/11/20 13:02:47;;;;;;;8.77;5.78;;;9.20;99.90;;;;;;5027428;28;20111;-79
2021/11/20 13:05:21;;;;;;;9.32;5.50;;;9.20;99.90;;;;;;5008545;28;20065;-80
2021/11/20 13:07:57;;;;;;;7.35;5.88;;;9.10;99.90;;;;;;5023742;28;20025;-79